sensor_id;sensor_type;location;lat;lon;timestamp;P1;durP1;ratioP1;P2;durP2;ratioP2
71196;SDS011;58918;51.652;4.864;2023-04-06T00:01:17;4.45;;;1.23;;
71196;SDS011;58918;51.652;4.864;2023-04-06T00:03:44;4.00;;;1.65;;
71196;SDS011;58918;51.652;4.864;2023-04-06T00:06:11;3.50;;;1.42;;
71196;SDS011;58918;51.652;4.864;2023-04-06T00:08:41;4.25;;;1.20;;
71196;SDS011;58918;51.652;4.864;2023-04-06T00:11:09;3.60;;;1.50;;
71196;SDS011;58918;51.652;4.864;2023-04-06T00:13:37;3.60;;;1.38;;
71196;SDS011;58918;51.652;4.864;2023-04-06T00:16:05;4.30;;;1.73;;
71196;SDS011;58918;51.652;4.864;2023-04-06T00:18:32;3.72;;;1.45;;
71196;SDS011;58918;51.652;4.864;2023-04-06T00:20:59;4.43;;;1.50;;
71196;SDS011;58918;51.652;4.864;2023-04-06T00:23:27;4.30;;;1.38;;
71196;SDS011;58918;51.652;4.864;2023-04-06T00:25:56;4.18;;;1.70;;
71196;SDS011;58918;51.652;4.864;2023-04-06T00:28:23;4.18;;;1.48;;
71196;SDS011;58918;51.652;4.864;2023-04-06T00:30:55;3.58;;;1.30;;
71196;SDS011;58918;51.652;4.864;2023-04-06T00:33:23;3.30;;;1.35;;
71196;SDS011;58918;51.652;4.864;2023-04-06T00:35:50;3.58;;;1.50;;
71196;SDS011;58918;51.652;4.864;2023-04-06T00:38:18;4.60;;;1.50;;
71196;SDS011;58918;51.652;4.864;2023-04-06T00:40:45;4.47;;;1.42;;
71196;SDS011;58918;51.652;4.864;2023-04-06T00:43:12;2.90;;;1.27;;
71196;SDS011;58918;51.652;4.864;2023-04-06T00:45:40;3.97;;;1.60;;
71196;SDS011;58918;51.652;4.864;2023-04-06T00:48:08;3.80;;;1.42;;
71196;SDS011;58918;51.652;4.864;2023-04-06T00:50:35;4.20;;;1.35;;
71196;SDS011;58918;51.652;4.864;2023-04-06T00:53:02;4.05;;;1.40;;
71196;SDS011;58918;51.652;4.864;2023-04-06T00:55:29;3.45;;;1.30;;
71196;SDS011;58918;51.652;4.864;2023-04-06T00:57:57;4.40;;;1.50;;
71196;SDS011;58918;51.652;4.864;2023-04-06T01:00:25;7.47;;;1.67;;
71196;SDS011;58918;51.652;4.864;2023-04-06T01:02:52;7.03;;;1.85;;
71196;SDS011;58918;51.652;4.864;2023-04-06T01:05:20;4.18;;;1.45;;
71196;SDS011;58918;51.652;4.864;2023-04-06T01:07:50;3.72;;;1.38;;
71196;SDS011;58918;51.652;4.864;2023-04-06T01:10:27;3.95;;;1.52;;
71196;SDS011;58918;51.652;4.864;2023-04-06T01:12:55;4.22;;;1.48;;
71196;SDS011;58918;51.652;4.864;2023-04-06T01:15:22;4.13;;;1.50;;
71196;SDS011;58918;51.652;4.864;2023-04-06T01:17:50;7.38;;;1.77;;
71196;SDS011;58918;51.652;4.864;2023-04-06T01:20:18;7.63;;;1.58;;
71196;SDS011;58918;51.652;4.864;2023-04-06T01:22:45;4.10;;;1.50;;
71196;SDS011;58918;51.652;4.864;2023-04-06T01:25:12;3.60;;;1.30;;
71196;SDS011;58918;51.652;4.864;2023-04-06T01:27:39;4.63;;;1.65;;
71196;SDS011;58918;51.652;4.864;2023-04-06T01:30:06;4.38;;;1.42;;
71196;SDS011;58918;51.652;4.864;2023-04-06T01:32:34;3.80;;;1.40;;
71196;SDS011;58918;51.652;4.864;2023-04-06T01:35:01;3.78;;;1.40;;
71196;SDS011;58918;51.652;4.864;2023-04-06T01:37:28;6.38;;;1.40;;
71196;SDS011;58918;51.652;4.864;2023-04-06T01:39:58;3.50;;;1.40;;
71196;SDS011;58918;51.652;4.864;2023-04-06T01:42:26;9.60;;;1.48;;
71196;SDS011;58918;51.652;4.864;2023-04-06T01:44:54;3.72;;;1.42;;
71196;SDS011;58918;51.652;4.864;2023-04-06T01:47:21;3.17;;;1.40;;
71196;SDS011;58918;51.652;4.864;2023-04-06T01:49:48;3.25;;;1.40;;
71196;SDS011;58918;51.652;4.864;2023-04-06T01:52:16;3.72;;;1.40;;
71196;SDS011;58918;51.652;4.864;2023-04-06T01:54:43;3.28;;;1.30;;
71196;SDS011;58918;51.652;4.864;2023-04-06T01:57:10;5.07;;;1.73;;
71196;SDS011;58918;51.652;4.864;2023-04-06T01:59:37;3.60;;;1.25;;
71196;SDS011;58918;51.652;4.864;2023-04-06T02:02:05;3.13;;;1.20;;
71196;SDS011;58918;51.652;4.864;2023-04-06T02:04:32;4.57;;;1.83;;
71196;SDS011;58918;51.652;4.864;2023-04-06T02:06:59;3.63;;;1.42;;
71196;SDS011;58918;51.652;4.864;2023-04-06T02:09:26;4.50;;;1.80;;
71196;SDS011;58918;51.652;4.864;2023-04-06T02:11:53;3.90;;;1.25;;
71196;SDS011;58918;51.652;4.864;2023-04-06T02:14:24;4.47;;;1.73;;
71196;SDS011;58918;51.652;4.864;2023-04-06T02:16:51;4.30;;;1.58;;
71196;SDS011;58918;51.652;4.864;2023-04-06T02:19:19;4.88;;;1.40;;
71196;SDS011;58918;51.652;4.864;2023-04-06T02:21:46;3.80;;;1.58;;
71196;SDS011;58918;51.652;4.864;2023-04-06T02:24:13;2.90;;;1.35;;
71196;SDS011;58918;51.652;4.864;2023-04-06T02:26:41;4.15;;;1.60;;
71196;SDS011;58918;51.652;4.864;2023-04-06T02:29:08;5.20;;;1.73;;
71196;SDS011;58918;51.652;4.864;2023-04-06T02:31:36;3.50;;;1.40;;
71196;SDS011;58918;51.652;4.864;2023-04-06T02:34:03;4.30;;;1.63;;
71196;SDS011;58918;51.652;4.864;2023-04-06T02:36:30;3.55;;;1.52;;
71196;SDS011;58918;51.652;4.864;2023-04-06T02:38:58;3.92;;;1.50;;
71196;SDS011;58918;51.652;4.864;2023-04-06T02:41:25;5.03;;;1.60;;
71196;SDS011;58918;51.652;4.864;2023-04-06T02:43:52;4.40;;;1.60;;
71196;SDS011;58918;51.652;4.864;2023-04-06T02:46:20;6.47;;;1.70;;
71196;SDS011;58918;51.652;4.864;2023-04-06T02:48:47;3.13;;;1.40;;
71196;SDS011;58918;51.652;4.864;2023-04-06T02:51:14;3.20;;;1.30;;
71196;SDS011;58918;51.652;4.864;2023-04-06T02:53:41;3.30;;;1.30;;
71196;SDS011;58918;51.652;4.864;2023-04-06T02:56:09;3.78;;;1.50;;
71196;SDS011;58918;51.652;4.864;2023-04-06T02:58:36;4.50;;;1.70;;
71196;SDS011;58918;51.652;4.864;2023-04-06T03:01:03;4.63;;;1.60;;
71196;SDS011;58918;51.652;4.864;2023-04-06T03:03:31;4.18;;;1.83;;
71196;SDS011;58918;51.652;4.864;2023-04-06T03:06:01;3.92;;;1.70;;
71196;SDS011;58918;51.652;4.864;2023-04-06T03:08:29;4.20;;;1.42;;
71196;SDS011;58918;51.652;4.864;2023-04-06T03:10:56;8.65;;;1.85;;
71196;SDS011;58918;51.652;4.864;2023-04-06T03:13:23;4.63;;;1.80;;
71196;SDS011;58918;51.652;4.864;2023-04-06T03:15:51;4.18;;;1.75;;
71196;SDS011;58918;51.652;4.864;2023-04-06T03:18:21;4.68;;;1.80;;
71196;SDS011;58918;51.652;4.864;2023-04-06T03:20:52;3.28;;;1.50;;
71196;SDS011;58918;51.652;4.864;2023-04-06T03:23:20;3.97;;;1.73;;
71196;SDS011;58918;51.652;4.864;2023-04-06T03:25:54;4.93;;;1.83;;
71196;SDS011;58918;51.652;4.864;2023-04-06T03:28:22;6.03;;;1.60;;
71196;SDS011;58918;51.652;4.864;2023-04-06T03:30:49;3.67;;;1.75;;
71196;SDS011;58918;51.652;4.864;2023-04-06T03:33:16;3.50;;;1.50;;
71196;SDS011;58918;51.652;4.864;2023-04-06T03:35:43;5.28;;;1.52;;
71196;SDS011;58918;51.652;4.864;2023-04-06T03:38:10;4.30;;;1.75;;
71196;SDS011;58918;51.652;4.864;2023-04-06T03:40:38;5.60;;;1.50;;
71196;SDS011;58918;51.652;4.864;2023-04-06T03:43:05;3.65;;;1.30;;
71196;SDS011;58918;51.652;4.864;2023-04-06T03:45:32;4.55;;;1.40;;
71196;SDS011;58918;51.652;4.864;2023-04-06T03:47:59;4.07;;;1.58;;
71196;SDS011;58918;51.652;4.864;2023-04-06T03:50:26;3.78;;;1.48;;
71196;SDS011;58918;51.652;4.864;2023-04-06T03:52:54;3.70;;;1.60;;
71196;SDS011;58918;51.652;4.864;2023-04-06T03:55:21;3.53;;;1.40;;
71196;SDS011;58918;51.652;4.864;2023-04-06T03:57:48;3.58;;;1.55;;
71196;SDS011;58918;51.652;4.864;2023-04-06T04:00:16;5.55;;;1.55;;
71196;SDS011;58918;51.652;4.864;2023-04-06T04:02:43;4.15;;;1.42;;
71196;SDS011;58918;51.652;4.864;2023-04-06T04:05:10;4.35;;;1.73;;
71196;SDS011;58918;51.652;4.864;2023-04-06T04:07:37;4.25;;;1.55;;
71196;SDS011;58918;51.652;4.864;2023-04-06T04:10:04;3.88;;;1.50;;
71196;SDS011;58918;51.652;4.864;2023-04-06T04:12:32;3.95;;;1.70;;
71196;SDS011;58918;51.652;4.864;2023-04-06T04:14:59;3.55;;;1.45;;
71196;SDS011;58918;51.652;4.864;2023-04-06T04:17:26;4.75;;;1.65;;
71196;SDS011;58918;51.652;4.864;2023-04-06T04:19:53;4.30;;;1.65;;
71196;SDS011;58918;51.652;4.864;2023-04-06T04:22:21;3.67;;;1.50;;
71196;SDS011;58918;51.652;4.864;2023-04-06T04:24:48;3.63;;;1.52;;
71196;SDS011;58918;51.652;4.864;2023-04-06T04:27:15;3.85;;;1.40;;
71196;SDS011;58918;51.652;4.864;2023-04-06T04:29:42;4.65;;;1.60;;
71196;SDS011;58918;51.652;4.864;2023-04-06T04:32:09;3.90;;;1.50;;
71196;SDS011;58918;51.652;4.864;2023-04-06T04:34:37;3.78;;;1.58;;
71196;SDS011;58918;51.652;4.864;2023-04-06T04:37:07;4.00;;;1.60;;
71196;SDS011;58918;51.652;4.864;2023-04-06T04:39:34;4.07;;;1.52;;
71196;SDS011;58918;51.652;4.864;2023-04-06T04:42:01;3.78;;;1.60;;
71196;SDS011;58918;51.652;4.864;2023-04-06T04:44:29;4.28;;;1.70;;
71196;SDS011;58918;51.652;4.864;2023-04-06T04:46:58;3.75;;;1.60;;
71196;SDS011;58918;51.652;4.864;2023-04-06T04:49:25;8.77;;;1.65;;
71196;SDS011;58918;51.652;4.864;2023-04-06T04:51:53;8.15;;;1.67;;
71196;SDS011;58918;51.652;4.864;2023-04-06T04:54:20;4.32;;;2.05;;
71196;SDS011;58918;51.652;4.864;2023-04-06T04:56:47;5.97;;;1.85;;
71196;SDS011;58918;51.652;4.864;2023-04-06T04:59:14;17.80;;;2.63;;
71196;SDS011;58918;51.652;4.864;2023-04-06T05:01:42;6.45;;;2.00;;
71196;SDS011;58918;51.652;4.864;2023-04-06T05:04:20;7.97;;;1.77;;
71196;SDS011;58918;51.652;4.864;2023-04-06T05:06:47;8.90;;;1.83;;
71196;SDS011;58918;51.652;4.864;2023-04-06T05:09:14;7.43;;;1.55;;
71196;SDS011;58918;51.652;4.864;2023-04-06T05:11:42;5.50;;;1.70;;
71196;SDS011;58918;51.652;4.864;2023-04-06T05:14:09;4.25;;;1.70;;
71196;SDS011;58918;51.652;4.864;2023-04-06T05:16:37;5.88;;;2.13;;
71196;SDS011;58918;51.652;4.864;2023-04-06T05:19:04;4.57;;;1.80;;
71196;SDS011;58918;51.652;4.864;2023-04-06T05:21:31;4.45;;;1.63;;
71196;SDS011;58918;51.652;4.864;2023-04-06T05:23:59;4.25;;;1.67;;
71196;SDS011;58918;51.652;4.864;2023-04-06T05:26:28;3.97;;;1.42;;
71196;SDS011;58918;51.652;4.864;2023-04-06T05:28:55;4.28;;;1.65;;
71196;SDS011;58918;51.652;4.864;2023-04-06T05:31:22;4.60;;;1.90;;
71196;SDS011;58918;51.652;4.864;2023-04-06T05:33:50;6.35;;;1.50;;
71196;SDS011;58918;51.652;4.864;2023-04-06T05:36:17;4.25;;;1.90;;
71196;SDS011;58918;51.652;4.864;2023-04-06T05:38:44;3.88;;;1.60;;
71196;SDS011;58918;51.652;4.864;2023-04-06T05:41:11;8.13;;;2.53;;
71196;SDS011;58918;51.652;4.864;2023-04-06T05:43:38;7.35;;;2.05;;
71196;SDS011;58918;51.652;4.864;2023-04-06T05:46:06;5.47;;;2.25;;
71196;SDS011;58918;51.652;4.864;2023-04-06T05:48:33;4.47;;;1.70;;
71196;SDS011;58918;51.652;4.864;2023-04-06T05:51:00;7.03;;;2.35;;
71196;SDS011;58918;51.652;4.864;2023-04-06T05:53:28;4.93;;;2.33;;
71196;SDS011;58918;51.652;4.864;2023-04-06T05:55:55;4.40;;;1.83;;
71196;SDS011;58918;51.652;4.864;2023-04-06T05:58:22;4.40;;;1.80;;
71196;SDS011;58918;51.652;4.864;2023-04-06T06:00:50;4.05;;;1.63;;
71196;SDS011;58918;51.652;4.864;2023-04-06T06:03:19;4.90;;;1.65;;
71196;SDS011;58918;51.652;4.864;2023-04-06T06:05:46;4.70;;;1.90;;
71196;SDS011;58918;51.652;4.864;2023-04-06T06:08:13;4.53;;;1.80;;
71196;SDS011;58918;51.652;4.864;2023-04-06T06:10:40;5.10;;;1.95;;
71196;SDS011;58918;51.652;4.864;2023-04-06T06:13:07;4.47;;;1.90;;
71196;SDS011;58918;51.652;4.864;2023-04-06T06:15:35;4.70;;;1.75;;
71196;SDS011;58918;51.652;4.864;2023-04-06T06:18:02;4.13;;;1.73;;
71196;SDS011;58918;51.652;4.864;2023-04-06T06:20:29;5.32;;;1.98;;
71196;SDS011;58918;51.652;4.864;2023-04-06T06:22:57;4.28;;;1.90;;
71196;SDS011;58918;51.652;4.864;2023-04-06T06:25:24;4.65;;;1.70;;
71196;SDS011;58918;51.652;4.864;2023-04-06T06:27:51;3.90;;;1.60;;
71196;SDS011;58918;51.652;4.864;2023-04-06T06:30:18;5.88;;;1.80;;
71196;SDS011;58918;51.652;4.864;2023-04-06T06:32:49;4.70;;;2.00;;
71196;SDS011;58918;51.652;4.864;2023-04-06T06:35:16;4.30;;;1.70;;
71196;SDS011;58918;51.652;4.864;2023-04-06T06:37:44;3.72;;;1.70;;
71196;SDS011;58918;51.652;4.864;2023-04-06T06:40:11;4.28;;;1.63;;
71196;SDS011;58918;51.652;4.864;2023-04-06T06:42:39;3.97;;;1.73;;
71196;SDS011;58918;51.652;4.864;2023-04-06T06:45:06;5.53;;;1.42;;
71196;SDS011;58918;51.652;4.864;2023-04-06T06:47:34;3.50;;;1.55;;
71196;SDS011;58918;51.652;4.864;2023-04-06T06:50:01;4.38;;;1.80;;
71196;SDS011;58918;51.652;4.864;2023-04-06T06:52:29;4.78;;;1.70;;
71196;SDS011;58918;51.652;4.864;2023-04-06T06:54:56;3.72;;;1.52;;
71196;SDS011;58918;51.652;4.864;2023-04-06T06:57:24;3.65;;;1.70;;
71196;SDS011;58918;51.652;4.864;2023-04-06T06:59:51;3.78;;;1.45;;
71196;SDS011;58918;51.652;4.864;2023-04-06T07:02:18;3.55;;;1.58;;
71196;SDS011;58918;51.652;4.864;2023-04-06T07:04:48;4.10;;;1.83;;
71196;SDS011;58918;51.652;4.864;2023-04-06T07:07:16;4.22;;;1.70;;
71196;SDS011;58918;51.652;4.864;2023-04-06T07:09:43;3.60;;;1.40;;
71196;SDS011;58918;51.652;4.864;2023-04-06T07:12:10;3.88;;;1.40;;
71196;SDS011;58918;51.652;4.864;2023-04-06T07:14:38;3.67;;;1.67;;
71196;SDS011;58918;51.652;4.864;2023-04-06T07:17:05;5.60;;;1.60;;
71196;SDS011;58918;51.652;4.864;2023-04-06T07:19:33;3.65;;;1.50;;
71196;SDS011;58918;51.652;4.864;2023-04-06T07:22:00;3.58;;;1.60;;
71196;SDS011;58918;51.652;4.864;2023-04-06T07:24:28;3.75;;;1.40;;
71196;SDS011;58918;51.652;4.864;2023-04-06T07:26:55;4.68;;;1.80;;
71196;SDS011;58918;51.652;4.864;2023-04-06T07:29:23;4.15;;;1.70;;
71196;SDS011;58918;51.652;4.864;2023-04-06T07:31:50;3.80;;;1.50;;
71196;SDS011;58918;51.652;4.864;2023-04-06T07:34:17;4.72;;;1.55;;
71196;SDS011;58918;51.652;4.864;2023-04-06T07:36:44;4.00;;;1.60;;
71196;SDS011;58918;51.652;4.864;2023-04-06T07:39:12;3.78;;;1.52;;
71196;SDS011;58918;51.652;4.864;2023-04-06T07:41:39;3.95;;;1.60;;
71196;SDS011;58918;51.652;4.864;2023-04-06T07:44:06;4.78;;;1.50;;
71196;SDS011;58918;51.652;4.864;2023-04-06T07:46:33;4.43;;;1.65;;
71196;SDS011;58918;51.652;4.864;2023-04-06T07:49:02;3.78;;;1.73;;
71196;SDS011;58918;51.652;4.864;2023-04-06T07:51:29;3.92;;;1.60;;
71196;SDS011;58918;51.652;4.864;2023-04-06T07:53:57;4.35;;;1.55;;
71196;SDS011;58918;51.652;4.864;2023-04-06T07:56:24;3.75;;;1.55;;
71196;SDS011;58918;51.652;4.864;2023-04-06T07:58:52;3.22;;;1.30;;
71196;SDS011;58918;51.652;4.864;2023-04-06T08:01:21;4.03;;;1.50;;
71196;SDS011;58918;51.652;4.864;2023-04-06T08:03:49;4.57;;;2.03;;
71196;SDS011;58918;51.652;4.864;2023-04-06T08:06:16;5.00;;;1.65;;
71196;SDS011;58918;51.652;4.864;2023-04-06T08:08:44;3.90;;;1.58;;
71196;SDS011;58918;51.652;4.864;2023-04-06T08:11:11;3.78;;;1.50;;
71196;SDS011;58918;51.652;4.864;2023-04-06T08:13:38;4.07;;;1.55;;
71196;SDS011;58918;51.652;4.864;2023-04-06T08:16:05;3.22;;;1.33;;
71196;SDS011;58918;51.652;4.864;2023-04-06T08:18:33;3.38;;;1.50;;
71196;SDS011;58918;51.652;4.864;2023-04-06T08:21:00;4.05;;;1.80;;
71196;SDS011;58918;51.652;4.864;2023-04-06T08:23:27;4.13;;;1.55;;
71196;SDS011;58918;51.652;4.864;2023-04-06T08:25:54;3.33;;;1.38;;
71196;SDS011;58918;51.652;4.864;2023-04-06T08:28:22;3.55;;;1.77;;
71196;SDS011;58918;51.652;4.864;2023-04-06T08:30:49;3.97;;;1.70;;
71196;SDS011;58918;51.652;4.864;2023-04-06T08:33:16;3.58;;;1.60;;
71196;SDS011;58918;51.652;4.864;2023-04-06T08:35:43;4.28;;;1.60;;
71196;SDS011;58918;51.652;4.864;2023-04-06T08:38:12;4.32;;;1.50;;
71196;SDS011;58918;51.652;4.864;2023-04-06T08:40:39;4.28;;;1.77;;
71196;SDS011;58918;51.652;4.864;2023-04-06T08:43:12;4.65;;;1.95;;
71196;SDS011;58918;51.652;4.864;2023-04-06T08:45:40;3.60;;;1.63;;
71196;SDS011;58918;51.652;4.864;2023-04-06T08:48:08;4.03;;;1.30;;
71196;SDS011;58918;51.652;4.864;2023-04-06T08:50:36;4.03;;;1.45;;
71196;SDS011;58918;51.652;4.864;2023-04-06T08:53:05;5.15;;;1.63;;
71196;SDS011;58918;51.652;4.864;2023-04-06T08:55:33;4.07;;;1.58;;
71196;SDS011;58918;51.652;4.864;2023-04-06T08:58:01;4.25;;;1.75;;
71196;SDS011;58918;51.652;4.864;2023-04-06T09:00:28;4.38;;;1.70;;
71196;SDS011;58918;51.652;4.864;2023-04-06T09:02:56;5.43;;;1.33;;
71196;SDS011;58918;51.652;4.864;2023-04-06T09:05:25;4.25;;;1.52;;
71196;SDS011;58918;51.652;4.864;2023-04-06T09:07:52;3.22;;;1.38;;
71196;SDS011;58918;51.652;4.864;2023-04-06T09:10:19;3.47;;;1.40;;
71196;SDS011;58918;51.652;4.864;2023-04-06T09:12:47;4.57;;;1.60;;
71196;SDS011;58918;51.652;4.864;2023-04-06T09:15:18;4.10;;;1.50;;
71196;SDS011;58918;51.652;4.864;2023-04-06T09:17:48;3.30;;;1.38;;
71196;SDS011;58918;51.652;4.864;2023-04-06T09:20:22;4.38;;;1.70;;
71196;SDS011;58918;51.652;4.864;2023-04-06T09:22:51;4.85;;;1.55;;
71196;SDS011;58918;51.652;4.864;2023-04-06T09:25:20;3.88;;;1.75;;
71196;SDS011;58918;51.652;4.864;2023-04-06T09:27:57;3.75;;;1.67;;
71196;SDS011;58918;51.652;4.864;2023-04-06T09:30:25;3.45;;;1.40;;
71196;SDS011;58918;51.652;4.864;2023-04-06T09:32:53;4.43;;;1.52;;
71196;SDS011;58918;51.652;4.864;2023-04-06T09:35:21;3.45;;;1.50;;
71196;SDS011;58918;51.652;4.864;2023-04-06T09:37:49;2.53;;;1.05;;
71196;SDS011;58918;51.652;4.864;2023-04-06T09:40:17;3.40;;;1.30;;
71196;SDS011;58918;51.652;4.864;2023-04-06T09:42:45;4.28;;;1.60;;
71196;SDS011;58918;51.652;4.864;2023-04-06T09:45:13;4.88;;;1.50;;
71196;SDS011;58918;51.652;4.864;2023-04-06T09:47:42;3.10;;;1.20;;
71196;SDS011;58918;51.652;4.864;2023-04-06T09:50:11;3.13;;;1.38;;
71196;SDS011;58918;51.652;4.864;2023-04-06T09:52:48;3.47;;;1.38;;
71196;SDS011;58918;51.652;4.864;2023-04-06T09:55:24;3.75;;;1.30;;
71196;SDS011;58918;51.652;4.864;2023-04-06T09:57:57;3.20;;;1.30;;
71196;SDS011;58918;51.652;4.864;2023-04-06T10:00:25;4.45;;;1.50;;
71196;SDS011;58918;51.652;4.864;2023-04-06T10:03:00;3.60;;;1.30;;
71196;SDS011;58918;51.652;4.864;2023-04-06T10:08:05;3.22;;;1.35;;
71196;SDS011;58918;51.652;4.864;2023-04-06T10:10:33;5.07;;;1.58;;
71196;SDS011;58918;51.652;4.864;2023-04-06T10:13:00;3.83;;;1.40;;
71196;SDS011;58918;51.652;4.864;2023-04-06T10:15:28;2.95;;;1.17;;
71196;SDS011;58918;51.652;4.864;2023-04-06T10:17:56;3.40;;;1.40;;
71196;SDS011;58918;51.652;4.864;2023-04-06T10:22:59;3.72;;;1.38;;
71196;SDS011;58918;51.652;4.864;2023-04-06T10:25:29;3.50;;;1.35;;
71196;SDS011;58918;51.652;4.864;2023-04-06T10:28:14;4.05;;;1.20;;
71196;SDS011;58918;51.652;4.864;2023-04-06T10:30:42;3.50;;;1.30;;
71196;SDS011;58918;51.652;4.864;2023-04-06T10:33:16;3.92;;;1.23;;
71196;SDS011;58918;51.652;4.864;2023-04-06T10:35:44;3.15;;;1.17;;
71196;SDS011;58918;51.652;4.864;2023-04-06T10:38:11;4.03;;;1.77;;
71196;SDS011;58918;51.652;4.864;2023-04-06T10:40:41;2.85;;;1.02;;
71196;SDS011;58918;51.652;4.864;2023-04-06T10:43:19;4.40;;;1.30;;
71196;SDS011;58918;51.652;4.864;2023-04-06T10:45:56;4.45;;;1.20;;
71196;SDS011;58918;51.652;4.864;2023-04-06T10:48:24;3.72;;;1.25;;
71196;SDS011;58918;51.652;4.864;2023-04-06T10:50:52;4.63;;;1.48;;
71196;SDS011;58918;51.652;4.864;2023-04-06T10:53:26;3.83;;;1.33;;
71196;SDS011;58918;51.652;4.864;2023-04-06T10:55:56;3.30;;;1.40;;
71196;SDS011;58918;51.652;4.864;2023-04-06T10:58:24;2.97;;;1.10;;
71196;SDS011;58918;51.652;4.864;2023-04-06T11:00:51;3.35;;;1.30;;
71196;SDS011;58918;51.652;4.864;2023-04-06T11:03:19;3.15;;;1.02;;
71196;SDS011;58918;51.652;4.864;2023-04-06T11:05:47;3.95;;;1.30;;
71196;SDS011;58918;51.652;4.864;2023-04-06T11:13:54;2.95;;;1.20;;
71196;SDS011;58918;51.652;4.864;2023-04-06T11:16:23;3.28;;;1.23;;
71196;SDS011;58918;51.652;4.864;2023-04-06T11:21:18;3.30;;;1.35;;
71196;SDS011;58918;51.652;4.864;2023-04-06T11:23:46;3.47;;;1.27;;
71196;SDS011;58918;51.652;4.864;2023-04-06T11:26:13;3.88;;;1.50;;
71196;SDS011;58918;51.652;4.864;2023-04-06T11:28:41;3.10;;;1.20;;
71196;SDS011;58918;51.652;4.864;2023-04-06T11:31:11;3.58;;;1.10;;
71196;SDS011;58918;51.652;4.864;2023-04-06T11:33:38;4.15;;;1.40;;
71196;SDS011;58918;51.652;4.864;2023-04-06T11:36:06;3.60;;;1.25;;
71196;SDS011;58918;51.652;4.864;2023-04-06T11:38:33;3.13;;;1.20;;
71196;SDS011;58918;51.652;4.864;2023-04-06T11:41:01;3.47;;;1.30;;
71196;SDS011;58918;51.652;4.864;2023-04-06T11:43:31;2.97;;;1.08;;
71196;SDS011;58918;51.652;4.864;2023-04-06T11:46:02;3.60;;;1.23;;
71196;SDS011;58918;51.652;4.864;2023-04-06T11:48:30;3.10;;;1.20;;
71196;SDS011;58918;51.652;4.864;2023-04-06T11:50:58;3.40;;;1.15;;
71196;SDS011;58918;51.652;4.864;2023-04-06T11:53:31;4.05;;;1.50;;
71196;SDS011;58918;51.652;4.864;2023-04-06T11:55:59;2.55;;;1.05;;
71196;SDS011;58918;51.652;4.864;2023-04-06T11:58:26;2.95;;;1.05;;
71196;SDS011;58918;51.652;4.864;2023-04-06T12:00:53;2.47;;;0.90;;
71196;SDS011;58918;51.652;4.864;2023-04-06T12:03:29;3.25;;;1.10;;
71196;SDS011;58918;51.652;4.864;2023-04-06T12:05:57;2.67;;;1.10;;
71196;SDS011;58918;51.652;4.864;2023-04-06T12:08:25;3.15;;;0.90;;
71196;SDS011;58918;51.652;4.864;2023-04-06T12:10:52;3.00;;;1.00;;
71196;SDS011;58918;51.652;4.864;2023-04-06T12:13:19;2.92;;;1.00;;
71196;SDS011;58918;51.652;4.864;2023-04-06T12:15:46;3.35;;;1.30;;
71196;SDS011;58918;51.652;4.864;2023-04-06T12:18:14;3.38;;;1.30;;
71196;SDS011;58918;51.652;4.864;2023-04-06T12:20:41;2.40;;;0.90;;
71196;SDS011;58918;51.652;4.864;2023-04-06T12:23:08;3.53;;;1.20;;
71196;SDS011;58918;51.652;4.864;2023-04-06T12:25:35;2.90;;;1.00;;
71196;SDS011;58918;51.652;4.864;2023-04-06T12:28:02;1.92;;;0.82;;
71196;SDS011;58918;51.652;4.864;2023-04-06T12:30:29;3.38;;;1.13;;
71196;SDS011;58918;51.652;4.864;2023-04-06T12:32:58;2.83;;;0.95;;
71196;SDS011;58918;51.652;4.864;2023-04-06T12:35:25;2.80;;;1.05;;
71196;SDS011;58918;51.652;4.864;2023-04-06T12:37:52;2.33;;;0.90;;
71196;SDS011;58918;51.652;4.864;2023-04-06T12:40:20;2.83;;;1.00;;
71196;SDS011;58918;51.652;4.864;2023-04-06T12:42:47;2.85;;;1.00;;
71196;SDS011;58918;51.652;4.864;2023-04-06T12:45:14;3.67;;;1.10;;
71196;SDS011;58918;51.652;4.864;2023-04-06T12:47:42;2.90;;;1.00;;
71196;SDS011;58918;51.652;4.864;2023-04-06T12:50:09;2.83;;;1.10;;
71196;SDS011;58918;51.652;4.864;2023-04-06T12:52:36;2.88;;;0.95;;
71196;SDS011;58918;51.652;4.864;2023-04-06T12:55:04;2.83;;;1.20;;
71196;SDS011;58918;51.652;4.864;2023-04-06T12:57:32;2.33;;;0.93;;
71196;SDS011;58918;51.652;4.864;2023-04-06T12:59:59;4.50;;;1.25;;
71196;SDS011;58918;51.652;4.864;2023-04-06T13:02:26;3.08;;;1.20;;
71196;SDS011;58918;51.652;4.864;2023-04-06T13:04:54;3.83;;;1.00;;
71196;SDS011;58918;51.652;4.864;2023-04-06T13:07:21;2.88;;;1.10;;
71196;SDS011;58918;51.652;4.864;2023-04-06T13:09:49;3.42;;;1.17;;
71196;SDS011;58918;51.652;4.864;2023-04-06T13:12:16;2.88;;;1.00;;
71196;SDS011;58918;51.652;4.864;2023-04-06T13:14:43;2.80;;;1.10;;
71196;SDS011;58918;51.652;4.864;2023-04-06T13:17:10;3.53;;;1.10;;
71196;SDS011;58918;51.652;4.864;2023-04-06T13:19:37;3.40;;;1.20;;
71196;SDS011;58918;51.652;4.864;2023-04-06T13:22:05;3.58;;;1.10;;
71196;SDS011;58918;51.652;4.864;2023-04-06T13:24:32;2.85;;;1.00;;
71196;SDS011;58918;51.652;4.864;2023-04-06T13:27:00;3.65;;;1.00;;
71196;SDS011;58918;51.652;4.864;2023-04-06T13:29:27;2.75;;;1.13;;
71196;SDS011;58918;51.652;4.864;2023-04-06T13:31:55;2.85;;;1.13;;
71196;SDS011;58918;51.652;4.864;2023-04-06T13:34:22;3.55;;;1.25;;
71196;SDS011;58918;51.652;4.864;2023-04-06T13:36:49;3.03;;;1.20;;
71196;SDS011;58918;51.652;4.864;2023-04-06T13:39:16;3.95;;;0.98;;
71196;SDS011;58918;51.652;4.864;2023-04-06T13:41:44;3.58;;;1.00;;
71196;SDS011;58918;51.652;4.864;2023-04-06T13:44:11;2.78;;;1.08;;
71196;SDS011;58918;51.652;4.864;2023-04-06T13:46:38;3.38;;;1.20;;
71196;SDS011;58918;51.652;4.864;2023-04-06T13:49:05;3.15;;;1.17;;
71196;SDS011;58918;51.652;4.864;2023-04-06T13:51:33;3.55;;;1.10;;
71196;SDS011;58918;51.652;4.864;2023-04-06T13:56:29;3.63;;;1.00;;
71196;SDS011;58918;51.652;4.864;2023-04-06T13:58:56;4.00;;;1.30;;
71196;SDS011;58918;51.652;4.864;2023-04-06T14:01:24;3.13;;;1.10;;
71196;SDS011;58918;51.652;4.864;2023-04-06T14:06:20;3.95;;;1.10;;
71196;SDS011;58918;51.652;4.864;2023-04-06T14:08:57;3.30;;;1.08;;
71196;SDS011;58918;51.652;4.864;2023-04-06T14:11:24;2.72;;;1.10;;
71196;SDS011;58918;51.652;4.864;2023-04-06T14:13:52;3.22;;;1.00;;
71196;SDS011;58918;51.652;4.864;2023-04-06T14:16:23;3.03;;;1.13;;
71196;SDS011;58918;51.652;4.864;2023-04-06T14:18:50;3.03;;;1.00;;
71196;SDS011;58918;51.652;4.864;2023-04-06T14:21:18;2.70;;;0.95;;
71196;SDS011;58918;51.652;4.864;2023-04-06T14:23:46;3.95;;;1.13;;
71196;SDS011;58918;51.652;4.864;2023-04-06T14:26:13;3.17;;;0.98;;
71196;SDS011;58918;51.652;4.864;2023-04-06T14:28:41;2.35;;;0.93;;
71196;SDS011;58918;51.652;4.864;2023-04-06T14:31:14;2.90;;;0.90;;
71196;SDS011;58918;51.652;4.864;2023-04-06T14:33:42;2.92;;;1.35;;
71196;SDS011;58918;51.652;4.864;2023-04-06T14:36:10;3.88;;;1.02;;
71196;SDS011;58918;51.652;4.864;2023-04-06T14:38:37;3.55;;;1.10;;
71196;SDS011;58918;51.652;4.864;2023-04-06T14:41:05;4.53;;;1.23;;
71196;SDS011;58918;51.652;4.864;2023-04-06T14:43:32;3.92;;;1.10;;
71196;SDS011;58918;51.652;4.864;2023-04-06T14:46:00;2.42;;;0.98;;
71196;SDS011;58918;51.652;4.864;2023-04-06T14:48:27;3.92;;;1.13;;
71196;SDS011;58918;51.652;4.864;2023-04-06T14:50:55;3.10;;;1.10;;
71196;SDS011;58918;51.652;4.864;2023-04-06T14:53:23;2.85;;;1.00;;
71196;SDS011;58918;51.652;4.864;2023-04-06T14:55:50;4.65;;;1.27;;
71196;SDS011;58918;51.652;4.864;2023-04-06T14:58:21;3.92;;;1.10;;
71196;SDS011;58918;51.652;4.864;2023-04-06T15:00:49;3.38;;;1.33;;
71196;SDS011;58918;51.652;4.864;2023-04-06T15:03:16;3.80;;;1.40;;
71196;SDS011;58918;51.652;4.864;2023-04-06T15:05:44;3.83;;;1.38;;
71196;SDS011;58918;51.652;4.864;2023-04-06T15:08:11;3.80;;;1.50;;
71196;SDS011;58918;51.652;4.864;2023-04-06T15:13:07;2.90;;;1.00;;